Yellow Mule RAWS (NWS)

Jump to table bottom
Date/Time Wind Direction Wind Speed knots Wind Gust knots RH % Accumulated Precip Inches Air Temp Fahrenheit
2022-08-18 20:04 NNE 4 8 36 10.78 63
2022-08-18 19:04 N 5 14 26 10.78 69
2022-08-18 18:04 NNW 10 15 19 10.78 71
2022-08-18 17:04 SW 6 12 19 10.78 73
2022-08-18 16:04 WSW 7 12 22 10.78 73
2022-08-18 15:04 W 8 14 22 10.78 73
2022-08-18 14:04 WSW 10 19 23 10.78 72
2022-08-18 13:04 SSW 5 10 23 10.78 72
2022-08-18 12:04 NE 4 8 29 10.78 72
2022-08-18 11:04 ESE 4 7 27 10.78 72
2022-08-18 10:04 SSE 4 6 32 10.78 69
2022-08-18 09:04 S 4 6 35 10.78 63
2022-08-18 08:04 S 5 6 41 10.78 56
2022-08-18 07:04 S 3 5 38 10.78 56
2022-08-18 06:04 S 3 5 41 10.78 54
2022-08-18 05:04 S 4 5 42 10.78 54
2022-08-18 04:04 S 3 7 41 10.78 54
2022-08-18 03:04 S 5 7 40 10.78 54
2022-08-18 02:04 S 4 5 35 10.78 55
2022-08-18 01:04 SE 3 4 31 10.78 57
2022-08-18 00:04 NNE 2 4 27 10.78 58
2022-08-17 23:04 NNE 4 7 25 10.78 60
2022-08-17 22:04 N 5 9 25 10.78 60
2022-08-17 21:04 NNE 4 11 27 10.78 60
2022-08-17 20:04 NNE 6 10 25 10.78 64
2022-08-17 19:04 NNW 5 11 20 10.78 69
2022-08-17 18:04 WSW 7 17 19 10.78 71
2022-08-17 17:04 WNW 7 14 19 10.78 72
2022-08-17 16:04 WSW 7 17 19 10.78 72
2022-08-17 15:04 WSW 6 15 19 10.78 72
2022-08-17 14:04 SW 7 16 21 10.78 73
2022-08-17 13:04 NE 7 14 22 10.78 71
2022-08-17 12:04 NNE 5 11 21 10.78 70
2022-08-17 11:04 NNE 5 10 20 10.78 73
2022-08-17 10:04 NE 5 9 20 10.78 74
2022-08-17 09:04 NNE 3 7 23 10.78 68
2022-08-17 08:04 NNE 3 3 27 10.78 61
2022-08-17 07:04 NNE 3 4 25 10.78 57
2022-08-17 06:04 NNW 3 5 27 10.78 55
2022-08-17 05:04 NNE 3 7 27 10.78 55
2022-08-17 04:04 N 4 9 27 10.78 56
2022-08-17 03:04 NNW 6 9 25 10.78 56
2022-08-17 02:04 N 5 10 30 10.78 56
2022-08-17 01:04 NNW 10 12 33 10.78 57
2022-08-17 00:04 NNW 4 5 34 10.78 59
2022-08-16 23:04 NNW 2 3 33 10.78 60
2022-08-16 22:04 NNE 2 7 26 10.78 61
2022-08-16 21:04 NW 5 8 27 10.78 61
2022-08-16 20:04 W 5 10 24 10.78 65
2022-08-16 19:04 SW 7 12 23 10.78 69